sensor_id;sensor_type;location;lat;lon;timestamp;P1;durP1;ratioP1;P2;durP2;ratioP2
76695;SDS011;65626;44.498;0.166;2022-12-24T00:10:01;22.60;;;10.27;;
76695;SDS011;65626;44.498;0.166;2022-12-24T00:23:51;15.60;;;7.67;;
76695;SDS011;65626;44.498;0.166;2022-12-24T00:37:41;-1.00;;;-1.00;;
76695;SDS011;65626;44.498;0.166;2022-12-24T00:51:31;14.93;;;6.43;;
76695;SDS011;65626;44.498;0.166;2022-12-24T01:05:22;15.50;;;6.47;;
76695;SDS011;65626;44.498;0.166;2022-12-24T01:19:13;11.63;;;5.60;;
76695;SDS011;65626;44.498;0.166;2022-12-24T01:33:04;12.00;;;4.23;;
76695;SDS011;65626;44.498;0.166;2022-12-24T01:47:05;11.87;;;4.97;;
76695;SDS011;65626;44.498;0.166;2022-12-24T02:00:47;13.20;;;4.80;;
76695;SDS011;65626;44.498;0.166;2022-12-24T02:14:37;13.73;;;3.87;;
76695;SDS011;65626;44.498;0.166;2022-12-24T02:28:34;6.83;;;2.97;;
76695;SDS011;65626;44.498;0.166;2022-12-24T02:42:19;8.37;;;2.40;;
76695;SDS011;65626;44.498;0.166;2022-12-24T02:56:17;10.60;;;4.27;;
76695;SDS011;65626;44.498;0.166;2022-12-24T03:10:03;14.17;;;4.40;;
76695;SDS011;65626;44.498;0.166;2022-12-24T03:23:50;10.93;;;3.70;;
76695;SDS011;65626;44.498;0.166;2022-12-24T03:37:41;7.00;;;3.53;;
76695;SDS011;65626;44.498;0.166;2022-12-24T03:51:33;10.03;;;4.50;;
76695;SDS011;65626;44.498;0.166;2022-12-24T04:05:23;10.70;;;3.90;;
76695;SDS011;65626;44.498;0.166;2022-12-24T04:19:14;10.27;;;4.00;;
76695;SDS011;65626;44.498;0.166;2022-12-24T04:33:05;6.40;;;3.90;;
76695;SDS011;65626;44.498;0.166;2022-12-24T04:46:56;11.07;;;3.90;;
76695;SDS011;65626;44.498;0.166;2022-12-24T05:00:45;9.93;;;3.87;;
76695;SDS011;65626;44.498;0.166;2022-12-24T05:14:36;15.40;;;6.17;;
76695;SDS011;65626;44.498;0.166;2022-12-24T05:28:28;7.87;;;3.40;;
76695;SDS011;65626;44.498;0.166;2022-12-24T05:42:18;14.93;;;5.07;;
76695;SDS011;65626;44.498;0.166;2022-12-24T05:56:10;20.33;;;5.23;;
76695;SDS011;65626;44.498;0.166;2022-12-24T06:09:59;25.57;;;6.07;;
76695;SDS011;65626;44.498;0.166;2022-12-24T06:23:50;23.30;;;4.30;;
76695;SDS011;65626;44.498;0.166;2022-12-24T06:37:42;12.77;;;2.67;;
76695;SDS011;65626;44.498;0.166;2022-12-24T06:51:32;82.40;;;9.27;;
76695;SDS011;65626;44.498;0.166;2022-12-24T07:05:23;48.07;;;6.50;;
76695;SDS011;65626;44.498;0.166;2022-12-24T07:19:15;64.37;;;8.63;;
76695;SDS011;65626;44.498;0.166;2022-12-24T07:33:05;26.43;;;7.87;;
76695;SDS011;65626;44.498;0.166;2022-12-24T07:46:56;40.47;;;8.83;;
76695;SDS011;65626;44.498;0.166;2022-12-24T08:00:48;47.43;;;14.67;;
76695;SDS011;65626;44.498;0.166;2022-12-24T08:14:38;54.40;;;10.47;;
76695;SDS011;65626;44.498;0.166;2022-12-24T08:28:30;35.73;;;9.87;;
76695;SDS011;65626;44.498;0.166;2022-12-24T08:42:21;44.63;;;11.63;;
76695;SDS011;65626;44.498;0.166;2022-12-24T08:56:13;14.63;;;7.27;;
76695;SDS011;65626;44.498;0.166;2022-12-24T09:10:05;11.70;;;6.60;;
76695;SDS011;65626;44.498;0.166;2022-12-24T09:23:56;15.07;;;7.10;;
76695;SDS011;65626;44.498;0.166;2022-12-24T09:37:47;9.47;;;5.07;;
76695;SDS011;65626;44.498;0.166;2022-12-24T09:51:42;13.73;;;5.83;;
76695;SDS011;65626;44.498;0.166;2022-12-24T10:05:31;17.60;;;9.00;;
76695;SDS011;65626;44.498;0.166;2022-12-24T10:19:21;7.57;;;5.27;;
76695;SDS011;65626;44.498;0.166;2022-12-24T10:33:15;8.83;;;4.87;;
76695;SDS011;65626;44.498;0.166;2022-12-24T10:47:05;5.40;;;3.90;;
76695;SDS011;65626;44.498;0.166;2022-12-24T11:00:57;4.50;;;3.00;;
76695;SDS011;65626;44.498;0.166;2022-12-24T11:14:49;4.07;;;2.60;;
76695;SDS011;65626;44.498;0.166;2022-12-24T11:28:41;7.13;;;2.47;;
76695;SDS011;65626;44.498;0.166;2022-12-24T11:42:32;12.23;;;2.43;;
76695;SDS011;65626;44.498;0.166;2022-12-24T11:56:26;2.60;;;1.60;;
76695;SDS011;65626;44.498;0.166;2022-12-24T12:10:17;2.25;;;1.45;;
76695;SDS011;65626;44.498;0.166;2022-12-24T12:24:11;5.65;;;2.35;;
76695;SDS011;65626;44.498;0.166;2022-12-24T12:38:03;2.75;;;1.90;;
76695;SDS011;65626;44.498;0.166;2022-12-24T12:51:53;2.00;;;1.60;;
76695;SDS011;65626;44.498;0.166;2022-12-24T13:19:38;3.15;;;1.60;;
76695;SDS011;65626;44.498;0.166;2022-12-24T13:47:17;4.50;;;2.20;;
76695;SDS011;65626;44.498;0.166;2022-12-24T14:01:05;4.00;;;1.97;;
76695;SDS011;65626;44.498;0.166;2022-12-24T14:14:57;3.50;;;1.95;;
76695;SDS011;65626;44.498;0.166;2022-12-24T14:28:52;4.75;;;3.10;;
76695;SDS011;65626;44.498;0.166;2022-12-24T14:42:47;7.23;;;3.70;;
76695;SDS011;65626;44.498;0.166;2022-12-24T14:56:31;7.30;;;2.90;;
76695;SDS011;65626;44.498;0.166;2022-12-24T15:10:24;13.00;;;4.10;;
76695;SDS011;65626;44.498;0.166;2022-12-24T15:38:03;7.73;;;4.90;;
76695;SDS011;65626;44.498;0.166;2022-12-24T15:52:00;12.23;;;6.37;;
76695;SDS011;65626;44.498;0.166;2022-12-24T16:05:42;11.37;;;4.50;;
76695;SDS011;65626;44.498;0.166;2022-12-24T16:19:30;8.13;;;3.00;;
76695;SDS011;65626;44.498;0.166;2022-12-24T16:33:18;7.53;;;4.37;;
76695;SDS011;65626;44.498;0.166;2022-12-24T16:47:10;11.40;;;5.70;;
76695;SDS011;65626;44.498;0.166;2022-12-24T17:01:04;7.57;;;4.20;;
76695;SDS011;65626;44.498;0.166;2022-12-24T17:14:49;9.67;;;3.77;;
76695;SDS011;65626;44.498;0.166;2022-12-24T17:28:39;9.37;;;3.30;;
76695;SDS011;65626;44.498;0.166;2022-12-24T17:42:28;13.53;;;5.63;;
76695;SDS011;65626;44.498;0.166;2022-12-24T17:56:19;15.17;;;7.63;;
76695;SDS011;65626;44.498;0.166;2022-12-24T18:10:10;23.40;;;11.20;;
76695;SDS011;65626;44.498;0.166;2022-12-24T18:24:01;15.87;;;8.17;;
76695;SDS011;65626;44.498;0.166;2022-12-24T18:37:52;9.50;;;5.03;;
76695;SDS011;65626;44.498;0.166;2022-12-24T18:51:42;19.87;;;11.43;;
76695;SDS011;65626;44.498;0.166;2022-12-24T19:05:33;11.50;;;7.10;;
76695;SDS011;65626;44.498;0.166;2022-12-24T19:19:22;10.10;;;6.10;;
76695;SDS011;65626;44.498;0.166;2022-12-24T19:33:13;24.00;;;13.10;;
76695;SDS011;65626;44.498;0.166;2022-12-24T19:47:03;16.47;;;10.03;;
76695;SDS011;65626;44.498;0.166;2022-12-24T20:00:53;15.33;;;8.17;;
76695;SDS011;65626;44.498;0.166;2022-12-24T20:14:44;16.77;;;10.73;;
76695;SDS011;65626;44.498;0.166;2022-12-24T20:28:35;16.50;;;8.93;;
76695;SDS011;65626;44.498;0.166;2022-12-24T20:42:26;22.50;;;12.73;;
76695;SDS011;65626;44.498;0.166;2022-12-24T20:56:16;30.53;;;15.90;;
76695;SDS011;65626;44.498;0.166;2022-12-24T21:10:07;32.53;;;15.53;;
76695;SDS011;65626;44.498;0.166;2022-12-24T21:23:58;36.87;;;19.07;;
76695;SDS011;65626;44.498;0.166;2022-12-24T21:37:50;44.30;;;21.60;;
76695;SDS011;65626;44.498;0.166;2022-12-24T21:51:41;45.50;;;24.37;;
76695;SDS011;65626;44.498;0.166;2022-12-24T22:05:32;54.27;;;30.50;;
76695;SDS011;65626;44.498;0.166;2022-12-24T22:19:22;34.60;;;17.67;;
76695;SDS011;65626;44.498;0.166;2022-12-24T22:33:13;43.47;;;23.63;;
76695;SDS011;65626;44.498;0.166;2022-12-24T22:47:04;24.83;;;14.47;;
76695;SDS011;65626;44.498;0.166;2022-12-24T23:00:55;29.27;;;14.30;;
76695;SDS011;65626;44.498;0.166;2022-12-24T23:14:45;37.60;;;18.43;;
76695;SDS011;65626;44.498;0.166;2022-12-24T23:28:35;24.27;;;13.40;;
76695;SDS011;65626;44.498;0.166;2022-12-24T23:42:28;29.43;;;16.17;;
76695;SDS011;65626;44.498;0.166;2022-12-24T23:56:19;29.20;;;15.07;;
